Time;durP1;ratioP1;P1;durP2;ratioP2;P2;SDS_P1;SDS_P2;PMS_P1;PMS_P2;Temp;Humidity;BMP_temperature;BMP_pressure;BME280_temperature;BME280_humidity;BME280_pressure;Samples;Min_cycle;Max_cycle;Signal;HPM_P1;HPM_P2
2022/11/22 00:02:09;;;;;;;41.92;31.45;;;10.80;1.00;;;;;;5029027;28;20079;-65
2022/11/22 00:04:35;;;;;;;37.28;30.05;;;10.80;1.00;;;;;;5015188;28;20108;-65
2022/11/22 00:07:01;;;;;;;43.13;32.08;;;10.80;1.00;;;;;;5009505;28;20014;-64
2022/11/22 00:09:26;;;;;;;40.00;29.75;;;10.80;1.00;;;;;;5013043;28;20076;-65
2022/11/22 00:11:52;;;;;;;37.88;28.98;;;10.80;1.00;;;;;;5011974;28;20480;-65
2022/11/22 00:14:18;;;;;;;41.08;29.20;;;10.80;1.00;;;;;;5011467;28;20029;-65
2022/11/22 00:16:43;;;;;;;41.00;29.70;;;10.80;1.00;;;;;;5033753;28;20128;-65
2022/11/22 00:19:09;;;;;;;42.83;29.77;;;10.80;1.00;;;;;;5017413;28;20034;-65
2022/11/22 00:21:34;;;;;;;41.92;30.27;;;10.60;1.00;;;;;;5014996;28;20544;-65
2022/11/22 00:24:00;;;;;;;36.28;27.17;;;10.70;1.00;;;;;;5019401;28;20114;-65
2022/11/22 00:26:25;;;;;;;37.10;26.85;;;10.70;1.00;;;;;;5033701;28;20057;-64
2022/11/22 00:28:51;;;;;;;36.13;27.73;;;10.70;1.00;;;;;;5016223;28;20498;-65
2022/11/22 00:31:17;;;;;;;37.40;27.02;;;10.70;1.00;;;;;;5019036;28;20025;-65
2022/11/22 00:33:42;;;;;;;39.72;26.17;;;10.50;1.00;;;;;;5012731;28;20467;-65
2022/11/22 00:36:08;;;;;;;35.30;27.15;;;10.60;1.00;;;;;;5015277;28;20034;-64
2022/11/22 00:38:34;;;;;;;37.65;27.15;;;10.50;1.00;;;;;;5020771;28;20041;-64
2022/11/22 00:40:59;;;;;;;40.25;29.27;;;10.40;1.00;;;;;;5023213;28;20460;-64
2022/11/22 00:43:25;;;;;;;43.30;30.52;;;10.50;1.00;;;;;;5029471;28;20403;-64
2022/11/22 00:45:50;;;;;;;38.72;28.83;;;10.50;1.00;;;;;;5013399;28;20037;-64
2022/11/22 00:48:16;;;;;;;45.80;31.60;;;10.40;1.00;;;;;;5015032;28;20448;-64
2022/11/22 00:50:41;;;;;;;44.85;32.15;;;10.50;1.00;;;;;;5022840;28;20138;-65
2022/11/22 00:53:07;;;;;;;48.65;32.13;;;10.50;1.00;;;;;;5028594;28;20428;-64
2022/11/22 00:55:33;;;;;;;50.25;34.70;;;10.50;1.00;;;;;;5017590;28;20052;-65
2022/11/22 00:57:59;;;;;;;50.17;34.08;;;10.40;1.00;;;;;;5021523;28;20064;-65
2022/11/22 01:00:24;;;;;;;41.42;30.02;;;10.40;1.00;;;;;;5015238;28;20365;-65
2022/11/22 01:02:50;;;;;;;41.80;30.42;;;10.30;1.00;;;;;;5030563;28;20374;-65
2022/11/22 01:05:16;;;;;;;46.92;33.15;;;10.30;1.00;;;;;;5016634;28;20121;-65
2022/11/22 01:07:43;;;;;;;44.58;31.70;;;10.40;1.00;;;;;;5025440;28;20029;-65
2022/11/22 01:10:09;;;;;;;43.33;32.70;;;10.40;1.00;;;;;;5025952;28;20033;-65
2022/11/22 01:12:35;;;;;;;43.58;32.85;;;10.30;1.00;;;;;;5024370;28;20033;-65
2022/11/22 01:15:01;;;;;;;51.40;35.50;;;10.30;1.00;;;;;;5020062;28;20037;-65
2022/11/22 01:17:27;;;;;;;45.95;32.88;;;10.30;1.00;;;;;;5026026;28;20045;-64
2022/11/22 01:19:52;;;;;;;48.42;33.70;;;10.30;1.00;;;;;;5033336;28;20494;-64
2022/11/22 01:22:18;;;;;;;48.67;34.33;;;10.30;1.00;;;;;;5026776;28;20071;-64
2022/11/22 01:24:44;;;;;;;51.55;35.10;;;10.20;1.00;;;;;;5017412;28;20068;-64
2022/11/22 01:27:09;;;;;;;53.70;37.60;;;10.20;1.00;;;;;;5012665;28;20122;-64
2022/11/22 01:29:35;;;;;;;54.67;38.80;;;10.30;1.00;;;;;;5030197;28;20025;-64
2022/11/22 01:32:00;;;;;;;63.45;41.40;;;10.30;1.00;;;;;;5025243;28;20416;-64
2022/11/22 01:34:26;;;;;;;62.40;39.83;;;10.10;1.00;;;;;;5021055;28;20364;-64
2022/11/22 01:36:52;;;;;;;59.10;40.60;;;10.10;1.00;;;;;;5012218;28;20080;-64
2022/11/22 01:39:17;;;;;;;58.90;39.20;;;10.00;1.00;;;;;;5015533;28;20026;-64
2022/11/22 01:41:43;;;;;;;55.97;38.42;;;10.30;1.00;;;;;;5021956;28;20045;-64
2022/11/22 01:44:28;;;;;;;51.40;35.65;;;10.20;1.00;;;;;;5013893;28;20384;-64
2022/11/22 01:47:01;;;;;;;55.40;39.78;;;10.30;1.00;;;;;;5027435;28;20032;-64
2022/11/22 01:49:30;;;;;;;56.33;39.42;;;10.30;1.00;;;;;;5032364;28;20049;-64
2022/11/22 01:52:01;;;;;;;55.90;39.00;;;10.40;1.00;;;;;;5019747;28;20052;-64
2022/11/22 01:54:31;;;;;;;52.10;37.13;;;10.30;1.00;;;;;;5013283;28;20018;-64
2022/11/22 01:57:01;;;;;;;47.38;35.65;;;10.20;1.00;;;;;;5021083;28;20057;-64
2022/11/22 01:59:31;;;;;;;45.47;33.20;;;10.10;1.00;;;;;;5032090;28;20485;-64
2022/11/22 02:01:58;;;;;;;47.03;34.40;;;10.10;1.00;;;;;;5016328;28;20033;-64
2022/11/22 02:04:27;;;;;;;40.53;31.13;;;10.10;1.00;;;;;;5009049;28;20022;-64
2022/11/22 02:06:56;;;;;;;42.20;30.85;;;10.00;1.00;;;;;;5019746;28;20057;-64
2022/11/22 02:09:22;;;;;;;41.30;30.17;;;10.00;1.00;;;;;;5032016;28;20056;-64
2022/11/22 02:11:51;;;;;;;40.40;29.40;;;10.00;1.00;;;;;;5019988;28;20049;-64
2022/11/22 02:14:23;;;;;;;35.75;27.98;;;10.00;1.00;;;;;;5018103;28;20097;-64
2022/11/22 02:16:49;;;;;;;40.45;29.65;;;9.90;1.00;;;;;;5019897;28;20033;-64
2022/11/22 02:19:37;;;;;;;33.30;26.20;;;9.70;1.00;;;;;;5031725;28;20049;-64
2022/11/22 02:22:20;;;;;;;33.20;26.15;;;9.80;8.80;;;;;;5016943;28;20133;-64
2022/11/22 02:25:02;;;;;;;32.88;26.00;;;9.80;11.90;;;;;;5007407;28;20064;-64
2022/11/22 02:27:27;;;;;;;34.63;26.73;;;9.90;8.00;;;;;;5015910;28;20167;-64
2022/11/22 02:29:53;;;;;;;33.38;25.67;;;9.90;1.00;;;;;;5031789;28;20487;-64
2022/11/22 02:32:18;;;;;;;29.55;25.10;;;9.70;1.00;;;;;;5020657;28;20087;-64
2022/11/22 02:34:46;;;;;;;32.33;22.90;;;9.80;1.00;;;;;;5024310;28;20058;-64
2022/11/22 02:37:16;;;;;;;31.95;23.13;;;9.70;1.90;;;;;;5019042;28;20048;-64
2022/11/22 02:39:44;;;;;;;31.25;23.70;;;9.50;3.60;;;;;;5011981;28;20809;-64
2022/11/22 02:42:10;;;;;;;32.13;24.02;;;9.60;3.00;;;;;;5011508;28;20053;-64
2022/11/22 02:44:37;;;;;;;28.75;22.42;;;9.70;1.00;;;;;;5011381;28;20030;-64
2022/11/22 02:47:03;;;;;;;29.65;21.20;;;9.70;1.10;;;;;;5024866;28;20079;-64
2022/11/22 02:49:28;;;;;;;29.88;22.30;;;9.70;70.30;;;;;;5026923;28;20042;-64
2022/11/22 02:51:54;;;;;;;29.42;22.45;;;9.80;23.60;;;;;;5024279;28;20036;-64
2022/11/22 02:54:20;;;;;;;30.05;23.00;;;9.60;2.60;;;;;;5023428;28;20050;-64
2022/11/22 02:56:46;;;;;;;29.73;23.02;;;9.70;1.20;;;;;;5021737;28;20042;-64
2022/11/22 02:59:12;;;;;;;29.58;22.30;;;9.70;6.00;;;;;;5030012;28;20026;-64
2022/11/22 03:01:37;;;;;;;32.10;23.42;;;9.70;5.10;;;;;;5019991;28;20026;-64
2022/11/22 03:04:03;;;;;;;32.17;23.38;;;9.80;94.30;;;;;;5026863;28;20111;-64
2022/11/22 03:06:29;;;;;;;26.77;20.75;;;9.80;99.90;;;;;;5035701;28;20025;-64
2022/11/22 03:08:54;;;;;;;29.38;21.60;;;9.60;99.90;;;;;;5029493;28;20475;-64
2022/11/22 03:11:20;;;;;;;26.88;21.48;;;9.70;99.90;;;;;;5005794;28;20056;-64
2022/11/22 03:13:45;;;;;;;28.77;21.02;;;9.70;99.90;;;;;;5018777;28;20391;-64
2022/11/22 03:16:11;;;;;;;27.13;20.23;;;9.60;99.90;;;;;;5020313;28;20179;-64
2022/11/22 03:18:36;;;;;;;28.15;20.70;;;9.70;99.90;;;;;;5024005;28;20121;-64
2022/11/22 03:21:07;;;;;;;28.92;19.98;;;9.80;99.90;;;;;;5014235;28;20061;-64
2022/11/22 03:23:33;;;;;;;28.23;18.27;;;9.70;99.90;;;;;;5030963;28;20026;-63
2022/11/22 03:26:05;;;;;;;23.25;18.02;;;9.50;99.90;;;;;;5030845;28;20052;-64
2022/11/22 03:28:30;;;;;;;23.08;16.55;;;9.70;99.90;;;;;;5026259;28;20026;-64
2022/11/22 03:30:56;;;;;;;23.60;16.25;;;9.60;99.90;;;;;;5020446;28;20017;-64
2022/11/22 03:33:22;;;;;;;19.80;14.95;;;9.70;99.90;;;;;;5019252;28;20061;-64
2022/11/22 03:35:47;;;;;;;19.95;15.10;;;9.70;99.90;;;;;;5015889;28;20018;-64
2022/11/22 03:38:13;;;;;;;19.83;14.68;;;9.60;99.90;;;;;;5012850;28;20055;-64
2022/11/22 03:40:39;;;;;;;17.03;13.83;;;9.80;99.90;;;;;;5019745;28;20042;-64
2022/11/22 03:43:04;;;;;;;15.43;12.80;;;9.50;99.90;;;;;;5018118;28;20077;-64
2022/11/22 03:45:30;;;;;;;19.23;13.50;;;9.50;99.90;;;;;;5019217;28;20030;-64
2022/11/22 03:47:56;;;;;;;13.88;11.60;;;9.70;99.90;;;;;;5005468;28;20411;-64
2022/11/22 03:50:23;;;;;;;13.75;11.45;;;9.30;99.90;;;;;;5016182;28;20061;-64
2022/11/22 03:52:48;;;;;;;20.20;14.53;;;9.30;99.90;;;;;;5022875;28;20500;-64
2022/11/22 03:55:14;;;;;;;16.98;11.63;;;9.60;99.90;;;;;;5030396;28;20071;-64
2022/11/22 03:57:40;;;;;;;19.67;12.32;;;9.30;99.90;;;;;;5019376;28;20037;-64
2022/11/22 04:00:07;;;;;;;16.97;12.90;;;9.10;99.90;;;;;;5034382;28;20117;-64
2022/11/22 04:02:33;;;;;;;17.13;12.48;;;9.50;99.90;;;;;;5027196;28;20033;-64
2022/11/22 04:04:58;;;;;;;14.15;11.32;;;9.40;99.90;;;;;;5015068;28;20108;-64
2022/11/22 04:07:24;;;;;;;13.80;9.82;;;9.50;99.90;;;;;;5015765;28;20475;-65
2022/11/22 04:09:49;;;;;;;16.02;11.20;;;9.50;99.90;;;;;;5024502;28;20026;-64
2022/11/22 04:12:15;;;;;;;15.90;10.25;;;9.50;99.90;;;;;;5016814;28;20025;-64
2022/11/22 04:17:40;;;;;;;10.30;8.00;;;9.50;99.90;;;;;;5020402;28;20084;-64
2022/11/22 04:23:06;;;;;;;10.33;7.60;;;9.10;99.90;;;;;;5015490;28;20033;-64
2022/11/22 04:25:33;;;;;;;7.37;6.00;;;9.20;99.90;;;;;;5026277;28;20269;-64
2022/11/22 04:27:59;;;;;;;8.23;6.70;;;8.90;99.90;;;;;;5029350;28;20029;-64
2022/11/22 04:33:10;;;;;;;8.57;5.10;;;9.00;99.90;;;;;;5017282;28;20450;-64
2022/11/22 04:35:37;;;;;;;6.10;4.57;;;9.20;99.90;;;;;;5024738;28;20121;-64
2022/11/22 04:38:03;;;;;;;5.80;4.45;;;9.20;99.90;;;;;;5025142;28;20128;-64
2022/11/22 04:40:29;;;;;;;4.97;4.43;;;9.40;99.90;;;;;;5033757;28;20029;-64
2022/11/22 04:45:39;;;;;;;5.73;4.67;;;9.30;99.90;;;;;;5021994;28;20049;-64
2022/11/22 04:48:05;;;;;;;4.40;2.67;;;9.50;99.90;;;;;;5017479;28;20029;-64
2022/11/22 04:53:16;;;;;;;5.30;3.70;;;9.30;99.90;;;;;;5010901;28;20398;-64
2022/11/22 04:55:45;;;;;;;6.83;3.63;;;9.70;99.90;;;;;;5010602;28;20388;-64
2022/11/22 04:58:11;;;;;;;7.10;3.53;;;9.50;99.90;;;;;;5010005;28;20050;-64
2022/11/22 05:00:37;;;;;;;4.63;3.33;;;9.60;99.90;;;;;;5011788;28;20049;-63
2022/11/22 05:03:03;;;;;;;3.28;1.92;;;9.50;99.90;;;;;;5011813;28;20025;-63
2022/11/22 05:05:29;;;;;;;2.33;1.70;;;9.50;99.90;;;;;;5012999;28;20030;-63
2022/11/22 05:07:56;;;;;;;4.00;2.60;;;9.00;99.90;;;;;;5013209;28;20036;-63
2022/11/22 05:10:22;;;;;;;3.87;1.90;;;9.40;99.90;;;;;;5017959;28;20116;-63
2022/11/22 05:12:47;;;;;;;3.70;2.07;;;9.40;99.90;;;;;;5023823;28;20407;-63
2022/11/22 05:15:13;;;;;;;3.58;2.35;;;9.50;99.90;;;;;;5018294;28;20501;-63
2022/11/22 05:17:39;;;;;;;3.70;1.90;;;9.60;99.90;;;;;;5015154;28;20074;-63
2022/11/22 05:20:06;;;;;;;5.13;2.10;;;9.50;99.90;;;;;;5012762;28;20034;-63
2022/11/22 05:25:17;;;;;;;3.63;2.58;;;9.30;99.90;;;;;;5016292;28;20045;-63
2022/11/22 05:27:43;;;;;;;2.33;2.10;;;9.50;99.90;;;;;;5025278;28;20029;-63
2022/11/22 05:30:09;;;;;;;2.92;1.92;;;9.60;99.90;;;;;;5019264;28;20468;-63
2022/11/22 05:32:34;;;;;;;3.22;1.88;;;9.50;99.90;;;;;;5022139;28;20135;-63
2022/11/22 05:35:00;;;;;;;3.57;1.93;;;9.50;99.90;;;;;;5020258;28;20034;-63
2022/11/22 05:37:26;;;;;;;3.65;2.22;;;9.50;99.90;;;;;;5030304;28;20091;-63
2022/11/22 05:39:52;;;;;;;3.75;1.80;;;9.50;99.90;;;;;;5023832;28;20018;-63
2022/11/22 05:42:18;;;;;;;1.88;1.52;;;9.70;99.90;;;;;;5019127;28;20120;-63
2022/11/22 05:44:43;;;;;;;2.40;1.55;;;9.70;99.90;;;;;;5014099;28;20026;-63
2022/11/22 05:47:09;;;;;;;3.35;1.90;;;9.40;99.90;;;;;;5032351;28;20029;-63
2022/11/22 05:49:35;;;;;;;3.13;1.98;;;9.40;99.90;;;;;;5024903;28;20444;-63
2022/11/22 05:52:01;;;;;;;1.67;1.38;;;9.50;99.90;;;;;;5021301;28;20405;-63
2022/11/22 05:54:27;;;;;;;1.67;1.40;;;9.20;99.90;;;;;;5012581;28;20109;-63
2022/11/22 05:56:53;;;;;;;1.57;1.10;;;9.20;99.90;;;;;;5030693;28;20136;-63
2022/11/22 05:59:19;;;;;;;1.97;1.40;;;9.20;99.90;;;;;;5024711;28;20029;-63
2022/11/22 06:01:44;;;;;;;1.70;1.40;;;9.20;99.90;;;;;;5024369;28;20372;-63
2022/11/22 06:04:10;;;;;;;2.27;1.43;;;9.20;99.90;;;;;;5011950;28;20096;-63
2022/11/22 06:06:36;;;;;;;2.08;1.52;;;9.20;99.90;;;;;;5020731;28;20119;-63
2022/11/22 06:09:01;;;;;;;1.55;1.40;;;9.10;99.90;;;;;;5020863;28;20026;-63
2022/11/22 06:11:27;;;;;;;3.03;1.73;;;9.30;99.90;;;;;;5011202;28;20030;-63
2022/11/22 06:13:58;;;;;;;2.47;2.07;;;9.50;99.90;;;;;;5011844;28;20029;-63
2022/11/22 06:16:25;;;;;;;1.67;1.17;;;9.50;99.90;;;;;;5012373;28;20108;-63
2022/11/22 06:18:52;;;;;;;2.00;1.67;;;9.20;99.90;;;;;;5031618;28;20033;-63
2022/11/22 06:21:22;;;;;;;1.70;1.60;;;9.60;99.90;;;;;;5007994;28;20021;-63
2022/11/22 06:23:48;;;;;;;1.88;1.50;;;9.60;99.90;;;;;;5006236;28;20025;-63
2022/11/22 06:26:16;;;;;;;2.10;1.40;;;9.30;99.90;;;;;;5017435;28;20045;-63
2022/11/22 06:28:42;;;;;;;1.83;1.73;;;9.50;99.90;;;;;;5018044;28;20076;-63
2022/11/22 06:31:17;;;;;;;3.35;1.88;;;9.60;99.90;;;;;;5018239;28;20108;-63
2022/11/22 06:33:43;;;;;;;2.72;1.60;;;9.50;99.90;;;;;;5009324;28;20112;-64
2022/11/22 06:36:17;;;;;;;1.67;1.43;;;9.30;99.90;;;;;;5021552;28;20076;-63
2022/11/22 06:38:43;;;;;;;4.90;2.10;;;9.70;99.90;;;;;;5015425;28;20034;-63
2022/11/22 06:41:14;;;;;;;3.87;2.00;;;9.80;99.90;;;;;;5012524;28;20391;-63
2022/11/22 06:43:41;;;;;;;2.10;1.53;;;9.50;99.90;;;;;;5011792;28;20056;-63
2022/11/22 06:46:08;;;;;;;2.08;1.67;;;9.40;99.90;;;;;;5029200;28;20032;-63
2022/11/22 06:48:36;;;;;;;1.63;1.52;;;9.50;99.90;;;;;;5018496;28;20034;-63
2022/11/22 06:51:22;;;;;;;2.13;1.60;;;9.00;99.90;;;;;;5026288;28;20029;-63
2022/11/22 06:53:49;;;;;;;2.73;1.87;;;9.10;99.90;;;;;;5015073;28;20026;-63
2022/11/22 06:56:38;;;;;;;3.30;1.90;;;9.20;99.90;;;;;;5021481;28;20038;-63
2022/11/22 06:59:04;;;;;;;4.65;2.50;;;9.00;99.90;;;;;;5024756;28;20387;-63
2022/11/22 07:01:31;;;;;;;2.13;1.93;;;9.40;99.90;;;;;;5010931;28;20078;-63
2022/11/22 07:03:58;;;;;;;4.25;1.92;;;9.20;99.90;;;;;;5011007;28;20030;-63
2022/11/22 07:06:26;;;;;;;2.53;2.03;;;9.10;99.90;;;;;;5000926;28;20101;-63
2022/11/22 07:08:52;;;;;;;3.35;2.53;;;8.90;99.90;;;;;;5011538;28;20052;-63
2022/11/22 07:11:19;;;;;;;9.00;2.83;;;9.40;99.90;;;;;;5011151;28;20083;-63
2022/11/22 07:13:46;;;;;;;5.60;2.15;;;9.40;99.90;;;;;;5014443;28;20049;-63
2022/11/22 07:16:14;;;;;;;7.57;2.53;;;9.20;99.90;;;;;;5010371;28;20026;-63
2022/11/22 07:18:40;;;;;;;2.67;2.08;;;9.50;99.90;;;;;;4998186;28;20129;-63
2022/11/22 07:21:09;;;;;;;4.07;2.17;;;9.60;99.90;;;;;;5013211;28;20102;-63
2022/11/22 07:23:35;;;;;;;5.33;2.53;;;9.40;99.90;;;;;;5027146;28;20388;-63
2022/11/22 07:26:00;;;;;;;4.47;2.77;;;9.60;99.90;;;;;;5016005;28;20121;-63
2022/11/22 07:28:26;;;;;;;3.78;2.30;;;9.60;99.90;;;;;;5012212;28;20392;-63
2022/11/22 07:30:57;;;;;;;6.03;2.80;;;9.40;99.90;;;;;;5017002;28;20112;-62
2022/11/22 07:33:23;;;;;;;4.22;2.38;;;9.70;99.90;;;;;;5017685;28;20067;-63
2022/11/22 07:35:49;;;;;;;6.43;3.10;;;9.70;99.90;;;;;;5015721;28;20030;-62
2022/11/22 07:38:14;;;;;;;7.90;3.55;;;9.60;99.90;;;;;;5011490;28;20448;-62
2022/11/22 07:40:40;;;;;;;9.32;3.40;;;9.60;99.90;;;;;;5012114;28;20045;-62
2022/11/22 07:43:06;;;;;;;5.63;2.72;;;9.50;99.90;;;;;;5012658;28;20061;-62
2022/11/22 07:45:31;;;;;;;3.03;2.17;;;9.30;99.90;;;;;;5009496;28;20467;-62
2022/11/22 07:48:00;;;;;;;3.53;2.27;;;9.60;99.90;;;;;;5005229;28;20033;-62
2022/11/22 07:50:27;;;;;;;3.90;2.57;;;9.70;99.90;;;;;;5027955;28;20026;-63
2022/11/22 07:52:59;;;;;;;4.60;2.97;;;9.90;99.90;;;;;;5025093;28;20484;-62
2022/11/22 07:55:26;;;;;;;3.57;2.03;;;9.90;99.90;;;;;;5029350;28;20033;-63
2022/11/22 07:57:52;;;;;;;3.65;2.20;;;9.90;99.90;;;;;;5023205;28;20038;-62
2022/11/22 08:00:19;;;;;;;9.80;3.15;;;9.80;99.90;;;;;;5021015;28;20453;-53
2022/11/22 08:02:45;;;;;;;2.00;1.80;;;9.60;99.90;;;;;;5011728;28;20053;-66
2022/11/22 08:05:11;;;;;;;3.40;2.03;;;9.80;99.90;;;;;;5020898;28;20451;-71
2022/11/22 08:07:36;;;;;;;3.65;1.75;;;9.60;99.90;;;;;;5006905;28;20018;-67
2022/11/22 08:10:02;;;;;;;4.10;2.30;;;9.80;99.90;;;;;;5018987;28;20052;-67
2022/11/22 08:12:28;;;;;;;3.15;2.05;;;9.60;99.90;;;;;;5022571;28;20486;-72
2022/11/22 08:14:54;;;;;;;4.53;2.08;;;9.80;99.90;;;;;;5017026;28;20045;-70
2022/11/22 08:17:19;;;;;;;3.78;2.30;;;9.70;99.90;;;;;;5034403;28;20143;-65
2022/11/22 08:19:45;;;;;;;7.15;2.50;;;9.90;99.90;;;;;;5018533;28;20511;-64
2022/11/22 08:22:11;;;;;;;3.80;1.90;;;9.60;99.90;;;;;;5008819;28;20044;-66
2022/11/22 08:24:37;;;;;;;3.92;2.08;;;9.90;99.90;;;;;;5016976;28;20088;-66
2022/11/22 08:27:02;;;;;;;4.22;2.45;;;9.90;99.90;;;;;;5022793;28;20487;-66
2022/11/22 08:29:28;;;;;;;4.13;2.38;;;9.90;99.90;;;;;;5027947;28;20432;-68
2022/11/22 08:31:54;;;;;;;4.13;2.70;;;9.70;99.90;;;;;;5025447;28;20368;-65
2022/11/22 08:34:20;;;;;;;2.67;1.70;;;9.80;99.90;;;;;;5031288;28;20033;-64
2022/11/22 08:36:45;;;;;;;2.33;2.13;;;9.60;99.90;;;;;;5021706;28;20458;-72
2022/11/22 08:39:11;;;;;;;4.43;2.00;;;9.70;99.90;;;;;;5030522;28;20540;-68
2022/11/22 08:41:37;;;;;;;6.03;2.00;;;9.30;99.90;;;;;;5019152;28;20045;-61
2022/11/22 08:44:02;;;;;;;4.40;2.05;;;9.30;99.90;;;;;;5022812;28;20468;-66
2022/11/22 08:46:28;;;;;;;3.17;2.60;;;9.20;99.90;;;;;;5020273;28;20100;-68
2022/11/22 08:48:53;;;;;;;4.47;2.50;;;9.20;99.90;;;;;;5014624;28;20455;-70
2022/11/22 08:51:19;;;;;;;5.20;2.60;;;9.40;99.90;;;;;;5015531;28;20087;-81
2022/11/22 08:53:45;;;;;;;8.10;3.33;;;9.30;99.90;;;;;;5033662;28;20386;-73
2022/11/22 08:56:14;;;;;;;7.45;3.47;;;9.60;99.90;;;;;;5022178;28;20117;-64
2022/11/22 08:58:40;;;;;;;4.85;3.22;;;9.50;99.90;;;;;;5016577;28;20041;-73
2022/11/22 09:01:06;;;;;;;6.07;3.92;;;9.40;99.90;;;;;;5011674;28;20480;-69
2022/11/22 09:03:34;;;;;;;5.10;3.15;;;9.50;99.90;;;;;;5004805;28;20038;-65
2022/11/22 09:06:05;;;;;;;3.75;2.88;;;9.50;99.90;;;;;;5020972;28;20113;-69
2022/11/22 09:08:31;;;;;;;3.63;2.80;;;9.40;99.90;;;;;;5002490;28;20026;-64
2022/11/22 09:11:01;;;;;;;5.10;2.88;;;9.20;99.90;;;;;;5012646;28;20029;-69
2022/11/22 09:13:28;;;;;;;5.05;2.80;;;9.20;99.90;;;;;;5011472;28;20052;-65
2022/11/22 09:15:54;;;;;;;3.65;2.95;;;9.50;99.90;;;;;;5010301;28;20038;-65
2022/11/22 09:18:20;;;;;;;3.38;2.53;;;9.40;99.90;;;;;;5010165;28;20043;-62
2022/11/22 09:20:45;;;;;;;4.35;3.28;;;9.40;99.90;;;;;;5011283;28;20041;-63
2022/11/22 09:23:11;;;;;;;3.05;2.78;;;9.80;99.90;;;;;;5011189;28;20025;-65
2022/11/22 09:25:36;;;;;;;6.40;3.90;;;9.80;99.90;;;;;;5012332;28;20030;-69
2022/11/22 09:28:02;;;;;;;4.40;2.70;;;10.10;99.90;;;;;;5012202;28;20021;-68
2022/11/22 09:30:29;;;;;;;4.72;3.47;;;10.20;99.90;;;;;;5012740;28;20113;-70
2022/11/22 09:32:54;;;;;;;6.53;3.47;;;10.10;99.90;;;;;;5014360;28;20389;-68
2022/11/22 09:35:20;;;;;;;6.45;3.80;;;10.30;99.90;;;;;;5019094;28;20033;-68
2022/11/22 09:37:46;;;;;;;6.40;4.13;;;10.20;99.90;;;;;;5021831;28;20037;-73
2022/11/22 09:40:12;;;;;;;7.10;4.20;;;10.40;99.90;;;;;;5016461;28;20353;-76
2022/11/22 09:43:03;;;;;;;5.65;3.40;;;10.40;99.90;;;;;;5013436;28;20058;-64
2022/11/22 09:45:47;;;;;;;6.80;3.47;;;10.10;99.90;;;;;;5014494;28;20515;-62
2022/11/22 09:48:49;;;;;;;4.95;3.30;;;10.10;99.90;;;;;;5032833;28;20037;-74
2022/11/22 09:51:20;;;;;;;7.53;4.22;;;10.10;99.90;;;;;;5017813;28;20216;-64
2022/11/22 09:54:04;;;;;;;5.90;3.38;;;10.30;99.90;;;;;;5016316;28;20041;-71
2022/11/22 09:56:32;;;;;;;17.42;5.80;;;10.40;99.90;;;;;;5001821;28;20049;-68
2022/11/22 09:59:14;;;;;;;12.35;4.25;;;10.50;99.90;;;;;;5014523;28;20445;-70
2022/11/22 10:02:24;;;;;;;5.22;3.95;;;10.40;99.90;;;;;;5014248;28;20026;-67
2022/11/22 10:04:56;;;;;;;9.00;5.43;;;10.30;99.90;;;;;;5021968;28;20380;-62
2022/11/22 10:07:25;;;;;;;6.55;3.55;;;10.60;99.90;;;;;;5014934;28;20038;-68
2022/11/22 10:09:57;;;;;;;7.22;4.20;;;10.40;99.90;;;;;;5016976;28;20096;-64
2022/11/22 10:12:46;;;;;;;7.47;4.75;;;10.60;99.90;;;;;;5016397;28;20032;-68
2022/11/22 10:15:31;;;;;;;10.15;5.10;;;10.60;99.90;;;;;;5006067;28;20436;-69
2022/11/22 10:18:13;;;;;;;6.80;4.53;;;10.40;99.90;;;;;;5016592;28;20096;-70
2022/11/22 10:20:40;;;;;;;12.73;5.13;;;10.60;99.90;;;;;;5019757;28;20073;-62
2022/11/22 10:23:14;;;;;;;25.60;7.20;;;10.50;99.90;;;;;;5018559;28;20026;-62
2022/11/22 10:25:57;;;;;;;15.07;4.80;;;10.50;99.90;;;;;;5022666;28;20098;-67
2022/11/22 10:28:38;;;;;;;12.02;5.57;;;10.60;99.90;;;;;;5015910;28;20091;-64
2022/11/22 10:31:16;;;;;;;14.52;5.90;;;10.70;99.90;;;;;;5027588;28;20038;-63
2022/11/22 10:34:17;;;;;;;10.32;5.18;;;10.70;99.90;;;;;;5017873;28;20017;-63
2022/11/22 10:36:49;;;;;;;6.00;3.00;;;10.70;99.90;;;;;;5018635;28;20096;-64
2022/11/22 10:39:43;;;;;;;4.47;2.92;;;10.50;99.90;;;;;;5031682;28;20613;-65
2022/11/22 10:42:39;;;;;;;7.15;2.92;;;10.60;99.90;;;;;;5006976;28;20109;-68
2022/11/22 10:45:24;;;;;;;4.72;2.58;;;10.70;99.90;;;;;;5020705;28;20590;-65
2022/11/22 10:48:30;;;;;;;3.08;0.90;;;10.60;99.90;;;;;;5013935;28;20088;-64
2022/11/22 10:51:11;;;;;;;2.03;0.55;;;10.30;99.90;;;;;;5008567;28;20036;-61
2022/11/22 10:53:42;;;;;;;2.55;0.60;;;10.10;99.90;;;;;;5023627;28;20045;-69
2022/11/22 10:56:25;;;;;;;4.00;0.90;;;10.20;99.90;;;;;;5020053;28;20026;-67
2022/11/22 10:58:51;;;;;;;5.07;2.40;;;10.40;99.90;;;;;;5014202;28;20029;-74
2022/11/22 11:01:21;;;;;;;2.28;0.82;;;10.20;99.90;;;;;;5013125;28;20100;-66
2022/11/22 11:03:50;;;;;;;2.13;0.45;;;10.20;99.90;;;;;;5015446;28;20136;-64
2022/11/22 11:06:22;;;;;;;5.32;3.10;;;10.10;99.90;;;;;;5014533;28;20105;-74
2022/11/22 11:09:10;;;;;;;8.43;4.30;;;9.80;99.90;;;;;;5026393;28;20513;-66
2022/11/22 11:11:38;;;;;;;13.93;5.85;;;10.30;99.90;;;;;;5003112;28;20026;-73
2022/11/22 11:14:23;;;;;;;2.17;1.40;;;10.10;99.90;;;;;;5025045;28;20112;-70
2022/11/22 11:16:50;;;;;;;2.28;1.40;;;10.00;99.90;;;;;;5013400;28;20042;-71
2022/11/22 11:19:19;;;;;;;3.40;1.80;;;9.90;99.90;;;;;;5021541;28;20084;-66
2022/11/22 11:21:44;;;;;;;5.22;3.65;;;10.10;99.90;;;;;;5014676;28;20033;-68
2022/11/22 11:24:15;;;;;;;7.93;3.65;;;10.00;99.90;;;;;;5025488;28;20029;-65
2022/11/22 11:26:52;;;;;;;7.07;4.93;;;10.00;99.90;;;;;;5017224;28;20076;-67
2022/11/22 11:29:18;;;;;;;7.65;5.82;;;10.00;99.90;;;;;;5009286;28;20030;-77
2022/11/22 11:31:49;;;;;;;7.30;5.88;;;10.10;99.90;;;;;;5035859;28;20029;-68
2022/11/22 11:34:36;;;;;;;7.20;6.43;;;10.30;99.90;;;;;;5013283;28;20030;-68
2022/11/22 11:37:04;;;;;;;6.40;5.78;;;10.40;99.90;;;;;;5010629;28;20033;-67
2022/11/22 11:39:32;;;;;;;5.85;5.10;;;10.20;99.90;;;;;;5012973;28;20050;-67
2022/11/22 11:41:59;;;;;;;10.57;6.43;;;10.20;99.90;;;;;;5025131;28;20074;-67
2022/11/22 11:44:35;;;;;;;6.90;6.20;;;10.30;99.90;;;;;;5012362;28;20370;-66
2022/11/22 11:47:02;;;;;;;8.40;6.10;;;10.40;99.90;;;;;;5015965;28;20480;-66
2022/11/22 11:49:33;;;;;;;7.60;6.10;;;10.60;99.90;;;;;;5025182;28;20029;-67
2022/11/22 11:52:07;;;;;;;6.95;5.65;;;10.60;99.90;;;;;;5024366;28;20040;-68
2022/11/22 11:54:44;;;;;;;8.07;6.32;;;10.50;99.90;;;;;;5020306;28;20049;-63
2022/11/22 11:57:29;;;;;;;6.50;5.90;;;10.20;99.90;;;;;;5018985;28;20042;-63
2022/11/22 11:59:57;;;;;;;5.85;5.13;;;10.30;99.90;;;;;;5018645;28;20068;-63
2022/11/22 12:02:37;;;;;;;7.75;5.70;;;10.20;99.90;;;;;;5031891;28;20075;-62
2022/11/22 12:05:22;;;;;;;5.55;4.90;;;10.30;99.90;;;;;;5016810;28;20108;-63
2022/11/22 12:07:49;;;;;;;6.72;5.45;;;10.40;99.90;;;;;;5027311;28;20029;-63
2022/11/22 12:10:41;;;;;;;6.32;5.45;;;10.20;99.90;;;;;;5026250;28;20096;-63
2022/11/22 12:13:34;;;;;;;7.85;5.78;;;10.10;99.90;;;;;;5032661;28;20149;-63
2022/11/22 12:16:24;;;;;;;6.50;5.00;;;10.60;99.90;;;;;;5015236;28;20022;-62
2022/11/22 12:19:13;;;;;;;4.32;3.80;;;10.20;99.90;;;;;;5019789;28;20052;-63
2022/11/22 12:21:48;;;;;;;5.68;4.80;;;10.20;99.90;;;;;;5034186;28;20033;-62
2022/11/22 12:24:22;;;;;;;8.20;4.55;;;10.30;99.90;;;;;;5005056;28;20104;-62
2022/11/22 12:26:47;;;;;;;5.90;4.50;;;10.60;99.90;;;;;;5027545;28;20061;-62
2022/11/22 12:29:14;;;;;;;9.10;4.55;;;10.30;99.90;;;;;;5021363;28;20068;-62
2022/11/22 12:32:22;;;;;;;12.48;5.97;;;10.60;99.90;;;;;;5031039;28;20471;-62
2022/11/22 12:34:53;;;;;;;10.82;5.78;;;10.50;99.90;;;;;;5021806;28;20059;-62
2022/11/22 12:37:28;;;;;;;11.80;5.28;;;10.50;99.90;;;;;;5025779;28;20042;-62
2022/11/22 12:40:00;;;;;;;9.98;5.20;;;10.30;99.90;;;;;;5014800;28;20109;-62
2022/11/22 12:42:40;;;;;;;23.55;6.15;;;10.40;99.90;;;;;;5033663;28;20060;-62
2022/11/22 12:45:12;;;;;;;8.27;5.00;;;10.70;99.90;;;;;;5028903;28;20029;-62
2022/11/22 12:47:40;;;;;;;16.08;6.70;;;10.70;99.90;;;;;;5026846;28;20025;-62
2022/11/22 12:50:45;;;;;;;8.52;6.10;;;10.80;99.90;;;;;;5027901;28;20045;-62
2022/11/22 12:53:19;;;;;;;13.40;7.38;;;10.70;99.90;;;;;;5005302;28;20369;-62
2022/11/22 12:56:20;;;;;;;10.65;6.93;;;10.80;99.90;;;;;;5007700;28;20112;-62
2022/11/22 12:59:05;;;;;;;10.00;7.50;;;10.80;99.90;;;;;;5024675;28;20040;-62
2022/11/22 13:01:41;;;;;;;8.80;7.43;;;10.70;99.90;;;;;;5022810;28;20030;-62
2022/11/22 13:04:14;;;;;;;9.50;7.28;;;10.60;99.90;;;;;;5023221;28;20036;-62
2022/11/22 13:07:00;;;;;;;8.40;7.10;;;10.90;99.90;;;;;;5021858;28;20025;-63
2022/11/22 13:09:32;;;;;;;11.57;8.50;;;10.70;99.90;;;;;;5014062;28;20113;-62
2022/11/22 13:12:08;;;;;;;14.43;8.88;;;10.90;99.90;;;;;;5021228;28;20056;-62
2022/11/22 13:14:42;;;;;;;14.88;8.45;;;10.90;99.90;;;;;;5012645;28;20142;-62
2022/11/22 13:17:10;;;;;;;18.45;9.18;;;11.00;99.90;;;;;;5028714;28;20440;-62
2022/11/22 13:19:48;;;;;;;11.57;8.35;;;11.10;99.90;;;;;;5007876;28;20507;-63